Charlotte Douglas International Airport
KCLT : now visible

Airfield :











YOU CAN JOIN US ON...

 
LOGIN :

Register | Disclaimer

   EN    FR    IT 

 









Legend :    VFR   Marginal VFR   IFR   Intensive IFR   Very Intensive IFR
Visi :
Ceiling :
>= 8 km
>= 3000ft
5 to 8 km
1000 to 3000 ft
1500m to 5 km
500 to 1000 ft
800 to 1500m
200 to 500 ft
< 800m
< 200 ft
Symbols :   Thunderstorms  Fog  Heavy snow  Heavy precipitations  Wind > 20 kt






- Airport Elevation : 748 ft
- IATA code : CLT


KCLT - Charlotte Douglas International

CURRENT METAR :
  • 011452Z 07010KT 2 1/2SM BR BKN004 OVC008 08/07 A3019 RMK SLP220 T00780067 53033

EXPIRED METARs :
  • 011352Z 03013KT 2 1/2SM BR OVC002 09/08 A3015 RMK SLP209 T00890083
  • 011328Z 03013G19KT 2 1/2SM BR BKN003 OVC006 12/11 A3013 RMK T01220111
  • 011252Z 00000KT 9SM BKN008 OVC120 14/14 A3011 RMK SLP191 T01440139
  • 011152Z 30003KT 10SM OVC008 15/14 A3009 RMK RAE1053 CIG 005V012 SLP185 P0000 60009 70011 T01500139 10150 20144 51017

TAF KCLT
Valid from the 01 at 14:00 until the 02 at 18:00 UTC


011405Z 0114/0218 03013KT 4SM BR OVC006
TEMPO 0114/0116 2SM BR OVC002
FM011600 05009KT P6SM OVC015
FM020000 07007KT P6SM OVC008
PROB30 0202/0206 5SM -RA BR OVC006
FM020600 08006KT 3SM -RA BR OVC004
KZTL FIR / North America



MET'MAP, your aeronautical weather chart ! - Copyright ORBIFLY December 2007 - Disclaimer

ORBIFLY MET'MAP TEAM :

Programming & Development : Alexandra Zaïnal
Original concept : Baudouin d'Aumeries
Technical & hardware support : Manuel Goepfert
Assistance : Marc-Olivier Méhu




SOURCES & CREDITS :

   NOAA       Earth
Advisory